sensor_id;sensor_type;location;lat;lon;timestamp;pressure;altitude;pressure_sealevel;temperature;humidity
62617;BME280;62539;51.190;6.808;2023-09-30T00:00:58;102208.25;;;21.84;61.42
62617;BME280;62539;51.190;6.808;2023-09-30T00:03:23;102198.50;;;21.86;61.70
62617;BME280;62539;51.190;6.808;2023-09-30T00:05:49;102206.53;;;21.81;61.64
62617;BME280;62539;51.190;6.808;2023-09-30T00:08:14;102230.38;;;21.80;61.79
62617;BME280;62539;51.190;6.808;2023-09-30T00:10:40;102236.50;;;21.80;61.53
62617;BME280;62539;51.190;6.808;2023-09-30T00:13:06;102239.13;;;21.82;61.70
62617;BME280;62539;51.190;6.808;2023-09-30T00:15:34;102234.69;;;21.82;61.39
62617;BME280;62539;51.190;6.808;2023-09-30T00:18:00;102227.69;;;21.81;61.76
62617;BME280;62539;51.190;6.808;2023-09-30T00:20:29;102220.63;;;21.82;61.77
62617;BME280;62539;51.190;6.808;2023-09-30T00:22:54;102223.34;;;21.79;61.74
62617;BME280;62539;51.190;6.808;2023-09-30T00:25:20;102225.00;;;21.83;61.55
62617;BME280;62539;51.190;6.808;2023-09-30T00:27:48;102229.34;;;21.85;61.64
62617;BME280;62539;51.190;6.808;2023-09-30T00:30:14;102232.88;;;21.84;61.54
62617;BME280;62539;51.190;6.808;2023-09-30T00:32:39;102231.22;;;21.80;61.30
62617;BME280;62539;51.190;6.808;2023-09-30T00:35:06;102218.06;;;21.79;61.72
62617;BME280;62539;51.190;6.808;2023-09-30T00:37:39;102219.81;;;21.80;61.42
62617;BME280;62539;51.190;6.808;2023-09-30T00:40:06;102217.09;;;21.81;61.30
62617;BME280;62539;51.190;6.808;2023-09-30T00:42:32;102228.56;;;21.82;61.55
62617;BME280;62539;51.190;6.808;2023-09-30T00:44:57;102227.69;;;21.81;61.41
62617;BME280;62539;51.190;6.808;2023-09-30T00:47:23;102238.28;;;21.80;61.64
62617;BME280;62539;51.190;6.808;2023-09-30T00:49:50;102235.56;;;21.83;61.21
62617;BME280;62539;51.190;6.808;2023-09-30T00:52:17;102237.38;;;21.81;61.68
62617;BME280;62539;51.190;6.808;2023-09-30T00:54:43;102235.66;;;21.80;61.21
62617;BME280;62539;51.190;6.808;2023-09-30T00:57:10;102237.38;;;21.81;61.16
62617;BME280;62539;51.190;6.808;2023-09-30T00:59:36;102226.91;;;21.78;61.13
62617;BME280;62539;51.190;6.808;2023-09-30T01:02:03;102239.22;;;21.77;61.57
62617;BME280;62539;51.190;6.808;2023-09-30T01:04:30;102253.25;;;21.81;61.19
62617;BME280;62539;51.190;6.808;2023-09-30T01:06:56;102244.41;;;21.82;61.08
62617;BME280;62539;51.190;6.808;2023-09-30T01:09:22;102247.97;;;21.79;61.71
62617;BME280;62539;51.190;6.808;2023-09-30T01:11:48;102249.78;;;21.77;61.43
62617;BME280;62539;51.190;6.808;2023-09-30T01:14:27;102237.53;;;21.75;61.52
62617;BME280;62539;51.190;6.808;2023-09-30T01:16:53;102230.53;;;21.73;61.33
62617;BME280;62539;51.190;6.808;2023-09-30T01:19:19;102228.78;;;21.72;61.25
62617;BME280;62539;51.190;6.808;2023-09-30T01:21:44;102227.91;;;21.72;61.34
62617;BME280;62539;51.190;6.808;2023-09-30T01:24:14;102230.44;;;21.77;61.23
62617;BME280;62539;51.190;6.808;2023-09-30T01:26:40;102241.84;;;21.79;61.12
62617;BME280;62539;51.190;6.808;2023-09-30T01:29:07;102255.13;;;21.76;61.51
62617;BME280;62539;51.190;6.808;2023-09-30T01:31:36;102264.81;;;21.75;61.48
62617;BME280;62539;51.190;6.808;2023-09-30T01:34:02;102250.69;;;21.76;61.36
62617;BME280;62539;51.190;6.808;2023-09-30T01:36:27;102250.78;;;21.73;61.22
62617;BME280;62539;51.190;6.808;2023-09-30T01:38:53;102247.13;;;21.79;61.47
62617;BME280;62539;51.190;6.808;2023-09-30T01:41:19;102245.34;;;21.79;61.39
62617;BME280;62539;51.190;6.808;2023-09-30T01:43:44;102255.13;;;21.76;61.36
62617;BME280;62539;51.190;6.808;2023-09-30T01:46:10;102252.56;;;21.72;61.12
62617;BME280;62539;51.190;6.808;2023-09-30T01:48:35;102247.19;;;21.76;61.39
62617;BME280;62539;51.190;6.808;2023-09-30T01:51:01;102246.38;;;21.73;61.18
62617;BME280;62539;51.190;6.808;2023-09-30T01:53:26;102261.38;;;21.71;61.34
62617;BME280;62539;51.190;6.808;2023-09-30T01:55:52;102268.34;;;21.74;61.06
62617;BME280;62539;51.190;6.808;2023-09-30T01:58:17;102271.88;;;21.75;61.08
62617;BME280;62539;51.190;6.808;2023-09-30T02:00:42;102277.09;;;21.78;61.41
62617;BME280;62539;51.190;6.808;2023-09-30T02:03:08;102273.53;;;21.79;61.22
62617;BME280;62539;51.190;6.808;2023-09-30T02:05:33;102273.63;;;21.76;61.23
62617;BME280;62539;51.190;6.808;2023-09-30T02:07:59;102277.19;;;21.73;61.13
62617;BME280;62539;51.190;6.808;2023-09-30T02:10:24;102281.56;;;21.74;61.46
62617;BME280;62539;51.190;6.808;2023-09-30T02:12:50;102279.06;;;21.68;61.50
62617;BME280;62539;51.190;6.808;2023-09-30T02:15:15;102283.41;;;21.70;61.18
62617;BME280;62539;51.190;6.808;2023-09-30T02:17:41;102279.94;;;21.68;61.33
62617;BME280;62539;51.190;6.808;2023-09-30T02:20:10;102277.22;;;21.71;61.48
62617;BME280;62539;51.190;6.808;2023-09-30T02:22:40;102281.75;;;21.66;61.45
62617;BME280;62539;51.190;6.808;2023-09-30T02:25:06;102279.94;;;21.68;61.20
62617;BME280;62539;51.190;6.808;2023-09-30T02:27:33;102268.50;;;21.68;61.47
62617;BME280;62539;51.190;6.808;2023-09-30T02:29:59;102266.66;;;21.71;61.02
62617;BME280;62539;51.190;6.808;2023-09-30T02:32:25;102262.28;;;21.70;60.92
62617;BME280;62539;51.190;6.808;2023-09-30T02:34:50;102257.94;;;21.68;61.35
62617;BME280;62539;51.190;6.808;2023-09-30T02:37:16;102259.72;;;21.67;61.10
62617;BME280;62539;51.190;6.808;2023-09-30T02:39:43;102258.06;;;21.63;61.24
62617;BME280;62539;51.190;6.808;2023-09-30T02:42:10;102252.63;;;21.69;60.98
62617;BME280;62539;51.190;6.808;2023-09-30T02:44:35;102256.28;;;21.64;61.32
62617;BME280;62539;51.190;6.808;2023-09-30T02:47:01;102257.16;;;21.64;61.25
62617;BME280;62539;51.190;6.808;2023-09-30T02:49:27;102266.75;;;21.67;61.29
62617;BME280;62539;51.190;6.808;2023-09-30T02:51:52;102265.91;;;21.66;61.06
62617;BME280;62539;51.190;6.808;2023-09-30T02:54:18;102273.91;;;21.63;61.39
62617;BME280;62539;51.190;6.808;2023-09-30T02:56:43;102274.75;;;21.65;60.98
62617;BME280;62539;51.190;6.808;2023-09-30T02:59:11;102277.41;;;21.64;61.20
62617;BME280;62539;51.190;6.808;2023-09-30T03:01:38;102283.59;;;21.61;61.06
62617;BME280;62539;51.190;6.808;2023-09-30T03:04:03;102290.59;;;21.65;61.03
62617;BME280;62539;51.190;6.808;2023-09-30T03:06:32;102285.31;;;21.64;61.32
62617;BME280;62539;51.190;6.808;2023-09-30T03:09:04;102288.00;;;21.61;61.27
62617;BME280;62539;51.190;6.808;2023-09-30T03:11:32;102282.78;;;21.57;61.24
62617;BME280;62539;51.190;6.808;2023-09-30T03:13:59;102274.81;;;21.61;61.10
62617;BME280;62539;51.190;6.808;2023-09-30T03:16:24;102270.44;;;21.59;61.42
62617;BME280;62539;51.190;6.808;2023-09-30T03:18:50;102273.03;;;21.61;61.12
62617;BME280;62539;51.190;6.808;2023-09-30T03:21:16;102277.50;;;21.59;61.43
62617;BME280;62539;51.190;6.808;2023-09-30T03:23:43;102274.16;;;21.51;61.34
62617;BME280;62539;51.190;6.808;2023-09-30T03:26:09;102280.22;;;21.56;61.36
62617;BME280;62539;51.190;6.808;2023-09-30T03:28:36;102282.88;;;21.54;61.55
62617;BME280;62539;51.190;6.808;2023-09-30T03:31:03;102280.22;;;21.54;61.08
62617;BME280;62539;51.190;6.808;2023-09-30T03:33:32;102279.38;;;21.54;61.41
62617;BME280;62539;51.190;6.808;2023-09-30T03:35:59;102278.53;;;21.52;61.27
62617;BME280;62539;51.190;6.808;2023-09-30T03:38:25;102261.78;;;21.53;61.32
62617;BME280;62539;51.190;6.808;2023-09-30T03:40:51;102276.81;;;21.51;61.45
62617;BME280;62539;51.190;6.808;2023-09-30T03:43:19;102266.16;;;21.54;61.18
62617;BME280;62539;51.190;6.808;2023-09-30T03:45:46;102275.78;;;21.56;61.01
62617;BME280;62539;51.190;6.808;2023-09-30T03:48:11;102270.56;;;21.53;61.21
62617;BME280;62539;51.190;6.808;2023-09-30T03:50:37;102264.44;;;21.53;61.24
62617;BME280;62539;51.190;6.808;2023-09-30T03:53:03;102262.69;;;21.52;61.15
62617;BME280;62539;51.190;6.808;2023-09-30T03:55:30;102263.53;;;21.54;61.24
62617;BME280;62539;51.190;6.808;2023-09-30T03:57:57;102260.97;;;21.51;61.41
62617;BME280;62539;51.190;6.808;2023-09-30T04:00:23;102250.47;;;21.48;61.27
62617;BME280;62539;51.190;6.808;2023-09-30T04:02:50;102254.09;;;21.43;61.43
62617;BME280;62539;51.190;6.808;2023-09-30T04:05:20;102270.78;;;21.44;61.41
62617;BME280;62539;51.190;6.808;2023-09-30T04:07:51;102278.75;;;21.42;61.33
62617;BME280;62539;51.190;6.808;2023-09-30T04:10:16;102281.34;;;21.44;61.33
62617;BME280;62539;51.190;6.808;2023-09-30T04:12:42;102270.84;;;21.42;61.22
62617;BME280;62539;51.190;6.808;2023-09-30T04:15:08;102268.13;;;21.46;61.53
62617;BME280;62539;51.190;6.808;2023-09-30T04:17:37;102254.91;;;21.46;61.25
62617;BME280;62539;51.190;6.808;2023-09-30T04:20:05;102253.13;;;21.46;61.33
62617;BME280;62539;51.190;6.808;2023-09-30T04:22:41;102256.59;;;21.50;61.29
62617;BME280;62539;51.190;6.808;2023-09-30T04:25:07;102267.25;;;21.45;61.35
62617;BME280;62539;51.190;6.808;2023-09-30T04:27:36;102267.25;;;21.45;61.29
62617;BME280;62539;51.190;6.808;2023-09-30T04:30:02;102255.91;;;21.41;60.94
62617;BME280;62539;51.190;6.808;2023-09-30T04:32:35;102250.56;;;21.43;61.35
62617;BME280;62539;51.190;6.808;2023-09-30T04:35:02;102255.81;;;21.44;61.06
62617;BME280;62539;51.190;6.808;2023-09-30T04:37:29;102268.13;;;21.46;61.29
62617;BME280;62539;51.190;6.808;2023-09-30T04:39:54;102270.00;;;21.40;61.31
62617;BME280;62539;51.190;6.808;2023-09-30T04:42:20;102277.00;;;21.41;61.36
62617;BME280;62539;51.190;6.808;2023-09-30T04:44:45;102284.03;;;21.42;61.13
62617;BME280;62539;51.190;6.808;2023-09-30T04:47:11;102289.38;;;21.39;61.09
62617;BME280;62539;51.190;6.808;2023-09-30T04:49:36;102285.78;;;21.43;61.20
62617;BME280;62539;51.190;6.808;2023-09-30T04:52:02;102288.34;;;21.45;61.13
62617;BME280;62539;51.190;6.808;2023-09-30T04:54:28;102296.34;;;21.42;61.29
62617;BME280;62539;51.190;6.808;2023-09-30T04:56:54;102299.00;;;21.42;60.85
62617;BME280;62539;51.190;6.808;2023-09-30T04:59:20;102294.66;;;21.39;61.00
62617;BME280;62539;51.190;6.808;2023-09-30T05:01:45;102288.50;;;21.39;61.05
62617;BME280;62539;51.190;6.808;2023-09-30T05:04:11;102296.47;;;21.37;61.46
62617;BME280;62539;51.190;6.808;2023-09-30T05:06:36;102299.94;;;21.39;61.38
62617;BME280;62539;51.190;6.808;2023-09-30T05:09:02;102302.53;;;21.41;61.21
62617;BME280;62539;51.190;6.808;2023-09-30T05:11:27;102302.53;;;21.41;61.20
62617;BME280;62539;51.190;6.808;2023-09-30T05:13:53;102300.03;;;21.35;61.30
62617;BME280;62539;51.190;6.808;2023-09-30T05:16:18;102297.47;;;21.32;61.09
62617;BME280;62539;51.190;6.808;2023-09-30T05:18:44;102304.47;;;21.33;61.04
62617;BME280;62539;51.190;6.808;2023-09-30T05:21:09;102304.53;;;21.29;61.40
62617;BME280;62539;51.190;6.808;2023-09-30T05:23:35;102306.41;;;21.26;61.60
62617;BME280;62539;51.190;6.808;2023-09-30T05:26:02;102312.44;;;21.31;61.47
62617;BME280;62539;51.190;6.808;2023-09-30T05:28:27;102307.09;;;21.34;61.08
62617;BME280;62539;51.190;6.808;2023-09-30T05:30:53;102314.19;;;21.30;61.03
62617;BME280;62539;51.190;6.808;2023-09-30T05:33:18;102321.13;;;21.36;60.71
62617;BME280;62539;51.190;6.808;2023-09-30T05:35:44;102315.78;;;21.39;60.96
62617;BME280;62539;51.190;6.808;2023-09-30T05:38:09;102315.03;;;21.33;61.23
62617;BME280;62539;51.190;6.808;2023-09-30T05:40:38;102321.13;;;21.36;60.98
62617;BME280;62539;51.190;6.808;2023-09-30T05:43:03;102317.66;;;21.33;60.87
62617;BME280;62539;51.190;6.808;2023-09-30T05:45:31;102314.25;;;21.29;61.02
62617;BME280;62539;51.190;6.808;2023-09-30T05:48:03;102323.00;;;21.31;60.86
62617;BME280;62539;51.190;6.808;2023-09-30T05:50:32;102327.38;;;21.32;61.23
62617;BME280;62539;51.190;6.808;2023-09-30T05:52:59;102326.59;;;21.27;61.13
62617;BME280;62539;51.190;6.808;2023-09-30T05:55:25;102326.47;;;21.33;61.10
62617;BME280;62539;51.190;6.808;2023-09-30T05:57:51;102321.25;;;21.30;61.19
62617;BME280;62539;51.190;6.808;2023-09-30T06:00:19;102329.97;;;21.34;61.07
62617;BME280;62539;51.190;6.808;2023-09-30T06:02:53;102333.50;;;21.33;60.95
62617;BME280;62539;51.190;6.808;2023-09-30T06:05:18;102332.66;;;21.30;60.86
62617;BME280;62539;51.190;6.808;2023-09-30T06:07:47;102325.59;;;21.33;60.95
62617;BME280;62539;51.190;6.808;2023-09-30T06:10:12;102324.75;;;21.32;60.75
62617;BME280;62539;51.190;6.808;2023-09-30T06:12:41;102322.88;;;21.36;61.04
62617;BME280;62539;51.190;6.808;2023-09-30T06:15:07;102325.53;;;21.36;60.79
62617;BME280;62539;51.190;6.808;2023-09-30T06:17:33;102339.63;;;21.35;60.62
62617;BME280;62539;51.190;6.808;2023-09-30T06:19:59;102343.09;;;21.38;60.68
62617;BME280;62539;51.190;6.808;2023-09-30T06:22:32;102334.28;;;21.38;60.79
62617;BME280;62539;51.190;6.808;2023-09-30T06:24:58;102333.31;;;21.42;60.33
62617;BME280;62539;51.190;6.808;2023-09-30T06:27:23;102328.00;;;21.43;60.37
62617;BME280;62539;51.190;6.808;2023-09-30T06:29:48;102342.13;;;21.42;60.51
62617;BME280;62539;51.190;6.808;2023-09-30T06:32:14;102332.47;;;21.40;60.64
62617;BME280;62539;51.190;6.808;2023-09-30T06:34:40;102337.75;;;21.40;60.69
62617;BME280;62539;51.190;6.808;2023-09-30T06:37:06;102340.38;;;21.41;60.50
62617;BME280;62539;51.190;6.808;2023-09-30T06:39:31;102342.13;;;21.42;60.64
62617;BME280;62539;51.190;6.808;2023-09-30T06:41:57;102338.56;;;21.43;60.37
62617;BME280;62539;51.190;6.808;2023-09-30T06:44:22;102347.41;;;21.42;60.46
62617;BME280;62539;51.190;6.808;2023-09-30T06:46:50;102354.41;;;21.43;60.50
62617;BME280;62539;51.190;6.808;2023-09-30T06:49:16;102355.25;;;21.46;60.34
62617;BME280;62539;51.190;6.808;2023-09-30T06:51:42;102354.28;;;21.50;60.44
62617;BME280;62539;51.190;6.808;2023-09-30T06:54:08;102357.81;;;21.49;60.49
62617;BME280;62539;51.190;6.808;2023-09-30T06:56:33;102363.88;;;21.52;60.43
62617;BME280;62539;51.190;6.808;2023-09-30T06:58:59;102362.06;;;21.56;60.26
62617;BME280;62539;51.190;6.808;2023-09-30T07:01:24;102362.09;;;21.54;59.91
62617;BME280;62539;51.190;6.808;2023-09-30T07:03:50;102350.53;;;21.60;59.77
62617;BME280;62539;51.190;6.808;2023-09-30T07:06:25;102340.81;;;21.61;59.85
62617;BME280;62539;51.190;6.808;2023-09-30T07:08:51;102349.59;;;21.63;59.94
62617;BME280;62539;51.190;6.808;2023-09-30T07:11:26;102360.16;;;21.63;59.61
62617;BME280;62539;51.190;6.808;2023-09-30T07:13:58;102352.25;;;21.63;59.86
62617;BME280;62539;51.190;6.808;2023-09-30T07:16:23;102357.50;;;21.64;59.60
62617;BME280;62539;51.190;6.808;2023-09-30T07:18:49;102368.91;;;21.66;59.74
62617;BME280;62539;51.190;6.808;2023-09-30T07:21:15;102364.53;;;21.65;59.49
62617;BME280;62539;51.190;6.808;2023-09-30T07:23:41;102370.72;;;21.64;59.61
62617;BME280;62539;51.190;6.808;2023-09-30T07:26:07;102373.22;;;21.70;59.49
62617;BME280;62539;51.190;6.808;2023-09-30T07:28:33;102371.34;;;21.76;59.26
62617;BME280;62539;51.190;6.808;2023-09-30T07:30:58;102385.31;;;21.81;59.10
62617;BME280;62539;51.190;6.808;2023-09-30T07:33:24;102386.16;;;21.81;59.30
62617;BME280;62539;51.190;6.808;2023-09-30T07:35:49;102401.88;;;21.87;58.85
62617;BME280;62539;51.190;6.808;2023-09-30T07:38:15;102407.16;;;21.89;58.83
62617;BME280;62539;51.190;6.808;2023-09-30T07:40:40;102415.06;;;21.89;59.02
62617;BME280;62539;51.190;6.808;2023-09-30T07:43:07;102417.59;;;21.94;58.88
62617;BME280;62539;51.190;6.808;2023-09-30T07:45:32;102421.06;;;21.97;58.78
62617;BME280;62539;51.190;6.808;2023-09-30T07:47:57;102420.16;;;21.98;58.83
62617;BME280;62539;51.190;6.808;2023-09-30T07:50:23;102427.94;;;22.03;58.30
62617;BME280;62539;51.190;6.808;2023-09-30T07:52:49;102422.59;;;22.08;58.54
62617;BME280;62539;51.190;6.808;2023-09-30T07:55:15;102425.16;;;22.11;58.20
62617;BME280;62539;51.190;6.808;2023-09-30T07:57:41;102421.53;;;22.15;57.94
62617;BME280;62539;51.190;6.808;2023-09-30T08:00:09;102420.50;;;22.21;57.91
62617;BME280;62539;51.190;6.808;2023-09-30T08:02:40;102423.03;;;22.25;57.72
62617;BME280;62539;51.190;6.808;2023-09-30T08:05:07;102437.94;;;22.28;57.94
62617;BME280;62539;51.190;6.808;2023-09-30T08:07:36;102441.44;;;22.30;57.98
62617;BME280;62539;51.190;6.808;2023-09-30T08:10:03;102439.63;;;22.32;57.71
62617;BME280;62539;51.190;6.808;2023-09-30T08:12:32;102443.00;;;22.37;57.70
62617;BME280;62539;51.190;6.808;2023-09-30T08:14:58;102440.34;;;22.39;57.46
62617;BME280;62539;51.190;6.808;2023-09-30T08:17:23;102446.41;;;22.42;57.58
62617;BME280;62539;51.190;6.808;2023-09-30T08:19:48;102446.34;;;22.47;57.34
62617;BME280;62539;51.190;6.808;2023-09-30T08:22:14;102445.47;;;22.46;57.44
62617;BME280;62539;51.190;6.808;2023-09-30T08:24:39;102443.59;;;22.52;56.86
62617;BME280;62539;51.190;6.808;2023-09-30T08:27:05;102450.50;;;22.57;57.12
62617;BME280;62539;51.190;6.808;2023-09-30T08:29:33;102439.72;;;22.65;56.87
62617;BME280;62539;51.190;6.808;2023-09-30T08:32:02;102440.44;;;22.72;56.67
62617;BME280;62539;51.190;6.808;2023-09-30T08:34:29;102440.28;;;22.78;56.38
62617;BME280;62539;51.190;6.808;2023-09-30T08:36:55;102435.66;;;22.86;56.24
62617;BME280;62539;51.190;6.808;2023-09-30T08:39:20;102440.72;;;22.96;56.04
62617;BME280;62539;51.190;6.808;2023-09-30T08:41:46;102443.09;;;23.05;55.48
62617;BME280;62539;51.190;6.808;2023-09-30T08:44:11;102439.41;;;23.11;55.43
62617;BME280;62539;51.190;6.808;2023-09-30T08:46:38;102457.69;;;23.20;54.95
62617;BME280;62539;51.190;6.808;2023-09-30T08:49:05;102440.88;;;23.21;55.02
62617;BME280;62539;51.190;6.808;2023-09-30T08:51:35;102441.81;;;23.20;54.98
62617;BME280;62539;51.190;6.808;2023-09-30T08:54:01;102441.38;;;23.37;54.92
62617;BME280;62539;51.190;6.808;2023-09-30T08:56:30;102436.44;;;23.55;54.13
62617;BME280;62539;51.190;6.808;2023-09-30T08:59:01;102431.53;;;23.72;53.67
62617;BME280;62539;51.190;6.808;2023-09-30T09:01:29;102423.88;;;23.90;53.18
62617;BME280;62539;51.190;6.808;2023-09-30T09:03:56;102420.78;;;24.05;52.94
62617;BME280;62539;51.190;6.808;2023-09-30T09:06:23;102408.66;;;24.25;52.48
62617;BME280;62539;51.190;6.808;2023-09-30T09:08:51;102397.34;;;24.47;51.84
62617;BME280;62539;51.190;6.808;2023-09-30T09:11:17;102403.53;;;24.74;51.03
62617;BME280;62539;51.190;6.808;2023-09-30T09:13:51;102409.94;;;24.92;50.62
62617;BME280;62539;51.190;6.808;2023-09-30T09:16:21;102413.06;;;25.04;50.49
62617;BME280;62539;51.190;6.808;2023-09-30T09:18:48;102413.53;;;25.41;49.54
62617;BME280;62539;51.190;6.808;2023-09-30T09:21:19;102414.16;;;25.71;48.65
62617;BME280;62539;51.190;6.808;2023-09-30T09:23:48;102409.69;;;25.94;48.15
62617;BME280;62539;51.190;6.808;2023-09-30T09:26:31;102412.19;;;26.21;47.73
62617;BME280;62539;51.190;6.808;2023-09-30T09:29:04;102413.28;;;26.37;47.08
62617;BME280;62539;51.190;6.808;2023-09-30T09:31:32;102410.91;;;26.52;46.69
62617;BME280;62539;51.190;6.808;2023-09-30T09:34:00;102406.66;;;26.68;46.37
62617;BME280;62539;51.190;6.808;2023-09-30T09:36:42;102402.28;;;26.88;46.00
62617;BME280;62539;51.190;6.808;2023-09-30T09:39:10;102403.84;;;27.13;45.32
62617;BME280;62539;51.190;6.808;2023-09-30T09:41:54;102399.81;;;27.23;44.87
62617;BME280;62539;51.190;6.808;2023-09-30T09:44:24;102409.19;;;26.71;46.17
62617;BME280;62539;51.190;6.808;2023-09-30T09:46:52;102404.63;;;27.15;45.34
62617;BME280;62539;51.190;6.808;2023-09-30T09:49:19;102412.69;;;26.72;46.29
62617;BME280;62539;51.190;6.808;2023-09-30T09:51:46;102402.59;;;27.39;44.80
62617;BME280;62539;51.190;6.808;2023-09-30T09:54:14;102408.69;;;27.81;43.90
62617;BME280;62539;51.190;6.808;2023-09-30T09:56:43;102423.31;;;28.09;43.19
62617;BME280;62539;51.190;6.808;2023-09-30T09:59:11;102418.69;;;28.32;42.69
62617;BME280;62539;51.190;6.808;2023-09-30T10:01:38;102429.50;;;28.46;42.46
62617;BME280;62539;51.190;6.808;2023-09-30T10:04:05;102427.84;;;28.61;42.07
62617;BME280;62539;51.190;6.808;2023-09-30T10:06:32;102436.63;;;27.92;43.19
62617;BME280;62539;51.190;6.808;2023-09-30T10:09:07;102433.34;;;28.41;42.61
62617;BME280;62539;51.190;6.808;2023-09-30T10:11:35;102441.94;;;28.83;41.48
62617;BME280;62539;51.190;6.808;2023-09-30T10:14:03;102437.78;;;27.86;43.58
62617;BME280;62539;51.190;6.808;2023-09-30T10:21:34;102455.25;;;27.74;43.95
62617;BME280;62539;51.190;6.808;2023-09-30T10:27:27;102442.94;;;26.28;47.03
62617;BME280;62539;51.190;6.808;2023-09-30T10:35:42;102436.03;;;27.85;43.80
62617;BME280;62539;51.190;6.808;2023-09-30T10:40:50;102440.09;;;28.83;41.57
62617;BME280;62539;51.190;6.808;2023-09-30T10:43:32;102446.75;;;29.10;41.16
62617;BME280;62539;51.190;6.808;2023-09-30T10:45:59;102455.56;;;29.28;40.61
62617;BME280;62539;51.190;6.808;2023-09-30T10:51:12;102445.97;;;29.41;40.31
62617;BME280;62539;51.190;6.808;2023-09-30T10:53:55;102456.72;;;29.40;40.47
62617;BME280;62539;51.190;6.808;2023-09-30T10:56:32;102454.16;;;29.54;40.20
62617;BME280;62539;51.190;6.808;2023-09-30T10:58:59;102443.13;;;29.60;40.06
62617;BME280;62539;51.190;6.808;2023-09-30T11:01:32;102445.09;;;29.73;39.94
62617;BME280;62539;51.190;6.808;2023-09-30T11:04:03;102438.03;;;29.72;39.58
62617;BME280;62539;51.190;6.808;2023-09-30T11:06:30;102439.22;;;29.82;39.83
62617;BME280;62539;51.190;6.808;2023-09-30T11:08:58;102432.16;;;29.81;39.45
62617;BME280;62539;51.190;6.808;2023-09-30T11:11:39;102421.63;;;29.78;39.72
62617;BME280;62539;51.190;6.808;2023-09-30T11:14:28;102420.78;;;29.77;39.48
62617;BME280;62539;51.190;6.808;2023-09-30T11:17:00;102427.34;;;29.72;39.75
62617;BME280;62539;51.190;6.808;2023-09-30T11:19:34;102423.38;;;29.79;39.69
62617;BME280;62539;51.190;6.808;2023-09-30T11:22:20;102417.94;;;29.81;39.82
62617;BME280;62539;51.190;6.808;2023-09-30T11:24:46;102417.66;;;29.85;39.56
62617;BME280;62539;51.190;6.808;2023-09-30T11:27:12;102414.22;;;29.83;39.70
62617;BME280;62539;51.190;6.808;2023-09-30T11:29:48;102408.97;;;29.66;39.65
62617;BME280;62539;51.190;6.808;2023-09-30T11:32:24;102400.97;;;29.50;40.03
62617;BME280;62539;51.190;6.808;2023-09-30T11:34:52;102397.56;;;29.30;40.62
62617;BME280;62539;51.190;6.808;2023-09-30T11:37:18;102391.50;;;29.26;40.92
62617;BME280;62539;51.190;6.808;2023-09-30T11:39:43;102391.50;;;29.26;40.87
62617;BME280;62539;51.190;6.808;2023-09-30T11:42:16;102390.66;;;29.26;40.84
62617;BME280;62539;51.190;6.808;2023-09-30T11:44:46;102396.22;;;29.21;40.84
62617;BME280;62539;51.190;6.808;2023-09-30T11:47:13;102384.34;;;29.27;40.83
62617;BME280;62539;51.190;6.808;2023-09-30T11:49:42;102380.91;;;29.25;41.08
62617;BME280;62539;51.190;6.808;2023-09-30T11:52:13;102380.91;;;29.25;40.98
62617;BME280;62539;51.190;6.808;2023-09-30T11:54:44;102380.19;;;29.21;40.98
62617;BME280;62539;51.190;6.808;2023-09-30T11:57:11;102377.91;;;29.15;41.13
62617;BME280;62539;51.190;6.808;2023-09-30T11:59:40;102386.94;;;29.12;41.10
62617;BME280;62539;51.190;6.808;2023-09-30T12:02:08;102368.22;;;29.12;41.23
62617;BME280;62539;51.190;6.808;2023-09-30T12:04:34;102372.88;;;29.09;41.21
62617;BME280;62539;51.190;6.808;2023-09-30T12:07:01;102366.94;;;29.03;41.48
62617;BME280;62539;51.190;6.808;2023-09-30T12:09:26;102372.50;;;28.99;41.66
62617;BME280;62539;51.190;6.808;2023-09-30T12:11:54;102370.63;;;29.01;41.55
62617;BME280;62539;51.190;6.808;2023-09-30T12:14:20;102363.56;;;29.00;41.62
62617;BME280;62539;51.190;6.808;2023-09-30T12:16:46;102360.03;;;28.99;41.76
62617;BME280;62539;51.190;6.808;2023-09-30T12:19:20;102354.84;;;28.96;41.86
62617;BME280;62539;51.190;6.808;2023-09-30T12:21:46;102335.22;;;28.97;41.86
62617;BME280;62539;51.190;6.808;2023-09-30T12:24:14;102326.31;;;28.97;41.73
62617;BME280;62539;51.190;6.808;2023-09-30T12:26:48;102329.88;;;28.97;41.64
62617;BME280;62539;51.190;6.808;2023-09-30T12:29:15;102318.81;;;28.87;42.00
62617;BME280;62539;51.190;6.808;2023-09-30T12:31:45;102319.69;;;28.88;42.07
62617;BME280;62539;51.190;6.808;2023-09-30T12:34:12;102320.88;;;28.82;42.10
62617;BME280;62539;51.190;6.808;2023-09-30T12:36:38;102324.59;;;28.80;42.23
62617;BME280;62539;51.190;6.808;2023-09-30T12:39:05;102334.63;;;28.74;42.44
62617;BME280;62539;51.190;6.808;2023-09-30T12:41:36;102343.13;;;28.65;42.46
62617;BME280;62539;51.190;6.808;2023-09-30T12:44:09;102343.84;;;28.51;42.94
62617;BME280;62539;51.190;6.808;2023-09-30T12:46:36;102348.56;;;28.28;43.18
62617;BME280;62539;51.190;6.808;2023-09-30T12:49:08;102344.03;;;28.13;43.43
62617;BME280;62539;51.190;6.808;2023-09-30T12:51:35;102343.50;;;27.87;44.27
62617;BME280;62539;51.190;6.808;2023-09-30T12:54:02;102342.53;;;27.70;44.44
62617;BME280;62539;51.190;6.808;2023-09-30T12:56:27;102335.63;;;27.66;44.74
62617;BME280;62539;51.190;6.808;2023-09-30T12:58:57;102338.44;;;28.00;43.92
62617;BME280;62539;51.190;6.808;2023-09-30T13:01:24;102337.97;;;28.09;43.79
62617;BME280;62539;51.190;6.808;2023-09-30T13:03:50;102324.78;;;27.88;44.22
62617;BME280;62539;51.190;6.808;2023-09-30T13:06:15;102328.28;;;27.89;44.25
62617;BME280;62539;51.190;6.808;2023-09-30T13:08:42;102319.44;;;28.06;43.56
62617;BME280;62539;51.190;6.808;2023-09-30T13:11:07;102326.66;;;28.04;43.76